sensor_id;sensor_type;location;lat;lon;timestamp;pressure;altitude;pressure_sealevel;temperature;humidity
71559;BME280;59382;43.852;25.952;2023-04-05T00:01:26;100858.00;;;7.06;70.92
71559;BME280;59382;43.852;25.952;2023-04-05T00:03:54;100862.16;;;7.09;71.43
71559;BME280;59382;43.852;25.952;2023-04-05T00:06:22;100872.69;;;7.25;71.10
71559;BME280;59382;43.852;25.952;2023-04-05T00:08:57;100867.31;;;7.25;70.80
71559;BME280;59382;43.852;25.952;2023-04-05T00:11:24;100873.63;;;7.32;71.09
71559;BME280;59382;43.852;25.952;2023-04-05T00:13:50;100867.69;;;7.36;71.27
71559;BME280;59382;43.852;25.952;2023-04-05T00:16:17;100857.78;;;7.37;71.03
71559;BME280;59382;43.852;25.952;2023-04-05T00:18:43;100855.84;;;7.31;71.13
71559;BME280;59382;43.852;25.952;2023-04-05T00:21:22;100862.88;;;7.32;71.06
71559;BME280;59382;43.852;25.952;2023-04-05T00:23:49;100859.44;;;7.23;71.16
71559;BME280;59382;43.852;25.952;2023-04-05T00:26:16;100860.75;;;7.27;71.44
71559;BME280;59382;43.852;25.952;2023-04-05T00:28:42;100838.09;;;7.15;70.99
71559;BME280;59382;43.852;25.952;2023-04-05T00:31:07;100859.25;;;7.25;71.17
71559;BME280;59382;43.852;25.952;2023-04-05T00:33:33;100840.84;;;7.22;71.51
71559;BME280;59382;43.852;25.952;2023-04-05T00:36:12;100832.97;;;7.20;71.58
71559;BME280;59382;43.852;25.952;2023-04-05T00:38:40;100853.81;;;7.33;71.54
71559;BME280;59382;43.852;25.952;2023-04-05T00:41:07;100838.81;;;7.24;71.34
71559;BME280;59382;43.852;25.952;2023-04-05T00:43:33;100823.38;;;7.26;71.31
71559;BME280;59382;43.852;25.952;2023-04-05T00:45:58;100840.84;;;7.36;71.58
71559;BME280;59382;43.852;25.952;2023-04-05T00:48:24;100846.47;;;7.41;71.45
71559;BME280;59382;43.852;25.952;2023-04-05T00:50:51;100837.41;;;7.42;71.60
71559;BME280;59382;43.852;25.952;2023-04-05T00:53:20;100824.19;;;7.41;71.49
71559;BME280;59382;43.852;25.952;2023-04-05T00:55:47;100829.22;;;7.50;71.50
71559;BME280;59382;43.852;25.952;2023-04-05T00:58:14;100825.16;;;7.54;71.45
71559;BME280;59382;43.852;25.952;2023-04-05T01:00:46;100825.78;;;7.56;71.20
71559;BME280;59382;43.852;25.952;2023-04-05T01:03:16;100830.69;;;7.53;71.19
71559;BME280;59382;43.852;25.952;2023-04-05T01:05:55;100843.88;;;7.48;71.62
71559;BME280;59382;43.852;25.952;2023-04-05T01:11:18;100841.03;;;7.35;71.45
71559;BME280;59382;43.852;25.952;2023-04-05T01:13:45;100834.72;;;7.28;72.26
71559;BME280;59382;43.852;25.952;2023-04-05T01:16:11;100825.41;;;7.24;72.06
71559;BME280;59382;43.852;25.952;2023-04-05T01:18:36;100834.84;;;7.34;72.06
71559;BME280;59382;43.852;25.952;2023-04-05T01:23:54;100816.31;;;7.25;71.74
71559;BME280;59382;43.852;25.952;2023-04-05T01:26:51;100835.28;;;7.38;71.63
71559;BME280;59382;43.852;25.952;2023-04-05T01:34:53;100824.00;;;7.28;71.85
71559;BME280;59382;43.852;25.952;2023-04-05T01:37:25;100811.44;;;7.14;71.79
71559;BME280;59382;43.852;25.952;2023-04-05T01:39:52;100817.72;;;7.21;72.37
71559;BME280;59382;43.852;25.952;2023-04-05T01:42:23;100808.22;;;7.18;72.44
71559;BME280;59382;43.852;25.952;2023-04-05T01:44:50;100824.38;;;7.25;72.29
71559;BME280;59382;43.852;25.952;2023-04-05T01:47:16;100813.09;;;7.15;72.08
71559;BME280;59382;43.852;25.952;2023-04-05T01:49:41;100825.50;;;7.16;72.27
71559;BME280;59382;43.852;25.952;2023-04-05T01:52:07;100825.13;;;7.19;72.37
71559;BME280;59382;43.852;25.952;2023-04-05T01:54:32;100816.44;;;7.17;72.54
71559;BME280;59382;43.852;25.952;2023-04-05T01:56:58;100813.63;;;7.25;72.29
71559;BME280;59382;43.852;25.952;2023-04-05T01:59:23;100806.72;;;7.30;72.05
71559;BME280;59382;43.852;25.952;2023-04-05T02:01:50;100811.75;;;7.40;72.42
71559;BME280;59382;43.852;25.952;2023-04-05T02:04:16;100801.97;;;7.32;72.18
71559;BME280;59382;43.852;25.952;2023-04-05T02:06:41;100799.22;;;7.26;72.18
71559;BME280;59382;43.852;25.952;2023-04-05T02:09:07;100825.31;;;7.32;72.49
71559;BME280;59382;43.852;25.952;2023-04-05T02:11:32;100802.47;;;7.21;72.13
71559;BME280;59382;43.852;25.952;2023-04-05T02:13:58;100815.31;;;7.26;72.72
71559;BME280;59382;43.852;25.952;2023-04-05T02:16:23;100811.13;;;7.23;73.06
71559;BME280;59382;43.852;25.952;2023-04-05T02:18:52;100818.63;;;7.28;72.95
71559;BME280;59382;43.852;25.952;2023-04-05T02:21:23;100818.00;;;7.26;73.00
71559;BME280;59382;43.852;25.952;2023-04-05T02:23:50;100807.72;;;7.15;72.88
71559;BME280;59382;43.852;25.952;2023-04-05T02:26:16;100828.94;;;7.24;72.93
71559;BME280;59382;43.852;25.952;2023-04-05T02:28:42;100810.22;;;7.16;73.11
71559;BME280;59382;43.852;25.952;2023-04-05T02:31:11;100835.09;;;7.25;72.90
71559;BME280;59382;43.852;25.952;2023-04-05T02:33:38;100823.91;;;7.07;73.40
71559;BME280;59382;43.852;25.952;2023-04-05T02:36:05;100829.41;;;6.99;74.14
71559;BME280;59382;43.852;25.952;2023-04-05T02:38:34;100837.81;;;6.96;74.12
71559;BME280;59382;43.852;25.952;2023-04-05T02:41:00;100805.53;;;6.75;74.45
71559;BME280;59382;43.852;25.952;2023-04-05T02:43:26;100817.38;;;6.80;74.72
71559;BME280;59382;43.852;25.952;2023-04-05T02:45:51;100835.13;;;6.96;74.13
71559;BME280;59382;43.852;25.952;2023-04-05T02:48:17;100831.44;;;6.97;73.65
71559;BME280;59382;43.852;25.952;2023-04-05T02:50:51;100834.47;;;6.94;74.01
71559;BME280;59382;43.852;25.952;2023-04-05T02:53:17;100824.59;;;6.80;74.02
71559;BME280;59382;43.852;25.952;2023-04-05T02:55:51;100838.06;;;6.72;74.22
71559;BME280;59382;43.852;25.952;2023-04-05T02:58:17;100839.47;;;6.68;73.73
71559;BME280;59382;43.852;25.952;2023-04-05T03:00:45;100832.59;;;6.65;73.93
71559;BME280;59382;43.852;25.952;2023-04-05T03:03:18;100840.56;;;6.73;74.20
71559;BME280;59382;43.852;25.952;2023-04-05T03:05:44;100828.28;;;6.79;73.81
71559;BME280;59382;43.852;25.952;2023-04-05T03:08:11;100842.44;;;6.87;73.92
71559;BME280;59382;43.852;25.952;2023-04-05T03:10:44;100845.13;;;6.87;73.48
71559;BME280;59382;43.852;25.952;2023-04-05T03:13:10;100841.63;;;6.87;74.03
71559;BME280;59382;43.852;25.952;2023-04-05T03:15:36;100838.94;;;6.87;73.36
71559;BME280;59382;43.852;25.952;2023-04-05T03:18:01;100841.97;;;6.84;73.70
71559;BME280;59382;43.852;25.952;2023-04-05T03:20:27;100827.00;;;6.75;73.28
71559;BME280;59382;43.852;25.952;2023-04-05T03:22:52;100826.25;;;6.66;73.53
71559;BME280;59382;43.852;25.952;2023-04-05T03:25:19;100838.81;;;6.66;73.61
71559;BME280;59382;43.852;25.952;2023-04-05T03:27:44;100790.41;;;6.30;73.64
71559;BME280;59382;43.852;25.952;2023-04-05T03:30:11;100844.19;;;6.66;73.65
71559;BME280;59382;43.852;25.952;2023-04-05T03:32:36;100833.06;;;6.54;73.72
71559;BME280;59382;43.852;25.952;2023-04-05T03:35:02;100854.91;;;6.66;73.88
71559;BME280;59382;43.852;25.952;2023-04-05T03:37:27;100843.69;;;6.62;73.64
71559;BME280;59382;43.852;25.952;2023-04-05T03:39:53;100849.53;;;6.66;73.37
71559;BME280;59382;43.852;25.952;2023-04-05T03:42:19;100841.69;;;6.64;73.43
71559;BME280;59382;43.852;25.952;2023-04-05T03:44:44;100851.00;;;6.68;73.59
71559;BME280;59382;43.852;25.952;2023-04-05T03:47:11;100830.09;;;6.64;73.47
71559;BME280;59382;43.852;25.952;2023-04-05T03:49:37;100848.06;;;6.78;73.20
71559;BME280;59382;43.852;25.952;2023-04-05T03:52:03;100857.41;;;6.82;73.49
71559;BME280;59382;43.852;25.952;2023-04-05T03:54:28;100857.50;;;6.74;73.05
71559;BME280;59382;43.852;25.952;2023-04-05T03:56:54;100853.25;;;6.65;73.65
71559;BME280;59382;43.852;25.952;2023-04-05T03:59:20;100849.78;;;6.56;73.18
71559;BME280;59382;43.852;25.952;2023-04-05T04:01:46;100830.06;;;6.35;73.62
71559;BME280;59382;43.852;25.952;2023-04-05T04:04:12;100853.09;;;6.44;73.82
71559;BME280;59382;43.852;25.952;2023-04-05T04:06:37;100842.81;;;6.33;73.80
71559;BME280;59382;43.852;25.952;2023-04-05T04:09:03;100863.53;;;6.39;73.14
71559;BME280;59382;43.852;25.952;2023-04-05T04:11:30;100851.88;;;6.32;73.71
71559;BME280;59382;43.852;25.952;2023-04-05T04:13:55;100857.59;;;6.29;74.01
71559;BME280;59382;43.852;25.952;2023-04-05T04:16:21;100861.66;;;6.25;73.62
71559;BME280;59382;43.852;25.952;2023-04-05T04:18:46;100853.97;;;6.22;73.62
71559;BME280;59382;43.852;25.952;2023-04-05T04:21:12;100867.00;;;6.25;73.89
71559;BME280;59382;43.852;25.952;2023-04-05T04:23:39;100871.88;;;6.21;74.14
71559;BME280;59382;43.852;25.952;2023-04-05T04:26:04;100853.00;;;6.15;73.99
71559;BME280;59382;43.852;25.952;2023-04-05T04:28:30;100815.34;;;5.93;74.23
71559;BME280;59382;43.852;25.952;2023-04-05T04:30:59;100871.03;;;6.21;74.61
71559;BME280;59382;43.852;25.952;2023-04-05T04:33:29;100860.69;;;6.18;74.39
71559;BME280;59382;43.852;25.952;2023-04-05T04:35:55;100845.50;;;6.10;74.60
71559;BME280;59382;43.852;25.952;2023-04-05T04:38:20;100829.69;;;6.00;75.04
71559;BME280;59382;43.852;25.952;2023-04-05T04:40:46;100866.00;;;6.26;74.34
71559;BME280;59382;43.852;25.952;2023-04-05T04:43:13;100876.16;;;6.30;74.28
71559;BME280;59382;43.852;25.952;2023-04-05T04:45:45;100853.53;;;6.33;74.23
71559;BME280;59382;43.852;25.952;2023-04-05T04:48:15;100869.50;;;6.49;74.35
71559;BME280;59382;43.852;25.952;2023-04-05T04:50:44;100878.28;;;6.57;73.84
71559;BME280;59382;43.852;25.952;2023-04-05T04:53:10;100876.34;;;6.66;73.88
71559;BME280;59382;43.852;25.952;2023-04-05T04:55:37;100861.00;;;6.60;73.43
71559;BME280;59382;43.852;25.952;2023-04-05T04:58:08;100875.44;;;6.59;73.35
71559;BME280;59382;43.852;25.952;2023-04-05T05:01:42;100864.75;;;6.51;72.75
71559;BME280;59382;43.852;25.952;2023-04-05T05:03:52;100872.44;;;6.54;73.53
71559;BME280;59382;43.852;25.952;2023-04-05T05:06:18;100850.66;;;6.34;72.85
71559;BME280;59382;43.852;25.952;2023-04-05T05:08:44;100864.38;;;6.39;73.00
71559;BME280;59382;43.852;25.952;2023-04-05T05:11:11;100850.56;;;6.28;73.53
71559;BME280;59382;43.852;25.952;2023-04-05T05:13:37;100861.22;;;6.36;73.35
71559;BME280;59382;43.852;25.952;2023-04-05T05:16:02;100873.63;;;6.37;73.34
71559;BME280;59382;43.852;25.952;2023-04-05T05:18:28;100854.25;;;6.27;73.04
71559;BME280;59382;43.852;25.952;2023-04-05T05:20:54;100846.66;;;6.16;73.13
71559;BME280;59382;43.852;25.952;2023-04-05T05:23:19;100834.22;;;6.00;73.14
71559;BME280;59382;43.852;25.952;2023-04-05T05:25:45;100864.97;;;6.27;73.11
71559;BME280;59382;43.852;25.952;2023-04-05T05:28:14;100853.31;;;6.20;72.97
71559;BME280;59382;43.852;25.952;2023-04-05T05:30:41;100870.31;;;6.27;73.19
71559;BME280;59382;43.852;25.952;2023-04-05T05:33:06;100858.00;;;6.18;72.82
71559;BME280;59382;43.852;25.952;2023-04-05T05:35:32;100826.28;;;6.07;73.16
71559;BME280;59382;43.852;25.952;2023-04-05T05:37:57;100856.84;;;6.20;72.69
71559;BME280;59382;43.852;25.952;2023-04-05T05:40:26;100873.09;;;6.19;73.02
71559;BME280;59382;43.852;25.952;2023-04-05T05:42:52;100854.75;;;6.07;72.42
71559;BME280;59382;43.852;25.952;2023-04-05T05:45:17;100848.66;;;6.14;73.29
71559;BME280;59382;43.852;25.952;2023-04-05T05:47:43;100858.25;;;6.31;72.41
71559;BME280;59382;43.852;25.952;2023-04-05T05:50:09;100859.06;;;6.31;72.14
71559;BME280;59382;43.852;25.952;2023-04-05T05:52:34;100865.94;;;6.34;72.38
71559;BME280;59382;43.852;25.952;2023-04-05T05:55:00;100867.53;;;6.43;72.21
71559;BME280;59382;43.852;25.952;2023-04-05T05:57:27;100873.34;;;6.46;72.33
71559;BME280;59382;43.852;25.952;2023-04-05T05:59:52;100876.50;;;6.50;72.28
71559;BME280;59382;43.852;25.952;2023-04-05T06:02:18;100866.16;;;6.47;71.98
71559;BME280;59382;43.852;25.952;2023-04-05T06:04:43;100882.81;;;6.57;72.08
71559;BME280;59382;43.852;25.952;2023-04-05T06:07:09;100876.16;;;6.53;72.04
71559;BME280;59382;43.852;25.952;2023-04-05T06:09:35;100886.50;;;6.56;71.89
71559;BME280;59382;43.852;25.952;2023-04-05T06:12:00;100877.44;;;6.57;71.84
71559;BME280;59382;43.852;25.952;2023-04-05T06:14:26;100878.91;;;6.59;71.93
71559;BME280;59382;43.852;25.952;2023-04-05T06:16:53;100839.69;;;6.44;71.37
71559;BME280;59382;43.852;25.952;2023-04-05T06:19:22;100892.66;;;6.79;71.63
71559;BME280;59382;43.852;25.952;2023-04-05T06:21:48;100877.28;;;6.73;71.27
71559;BME280;59382;43.852;25.952;2023-04-05T06:24:13;100892.06;;;6.69;70.87
71559;BME280;59382;43.852;25.952;2023-04-05T06:26:39;100882.06;;;6.63;70.87
71559;BME280;59382;43.852;25.952;2023-04-05T06:29:05;100901.16;;;6.68;71.25
71559;BME280;59382;43.852;25.952;2023-04-05T06:31:33;100899.69;;;6.80;70.92
71559;BME280;59382;43.852;25.952;2023-04-05T06:33:59;100910.06;;;6.83;71.15
71559;BME280;59382;43.852;25.952;2023-04-05T06:36:25;100898.00;;;6.79;71.12
71559;BME280;59382;43.852;25.952;2023-04-05T06:38:51;100909.69;;;6.86;71.13
71559;BME280;59382;43.852;25.952;2023-04-05T06:41:17;100907.63;;;6.88;71.08
71559;BME280;59382;43.852;25.952;2023-04-05T06:43:55;100908.31;;;6.90;70.64
71559;BME280;59382;43.852;25.952;2023-04-05T06:46:21;100876.19;;;6.82;70.80
71559;BME280;59382;43.852;25.952;2023-04-05T06:48:47;100897.03;;;6.94;70.86
71559;BME280;59382;43.852;25.952;2023-04-05T06:51:18;100900.09;;;7.06;70.52
71559;BME280;59382;43.852;25.952;2023-04-05T06:53:46;100880.44;;;7.05;70.40
71559;BME280;59382;43.852;25.952;2023-04-05T06:56:13;100896.47;;;7.13;70.13
71559;BME280;59382;43.852;25.952;2023-04-05T06:58:39;100898.59;;;7.18;70.12
71559;BME280;59382;43.852;25.952;2023-04-05T07:01:09;100886.13;;;7.10;70.08
71559;BME280;59382;43.852;25.952;2023-04-05T07:03:37;100894.72;;;7.20;70.37
71559;BME280;59382;43.852;25.952;2023-04-05T07:06:05;100903.72;;;7.27;69.93
71559;BME280;59382;43.852;25.952;2023-04-05T07:08:32;100902.88;;;7.27;69.99
71559;BME280;59382;43.852;25.952;2023-04-05T07:11:05;100900.06;;;7.20;69.80
71559;BME280;59382;43.852;25.952;2023-04-05T07:13:34;100888.25;;;7.15;69.97
71559;BME280;59382;43.852;25.952;2023-04-05T07:16:00;100898.16;;;7.29;70.15
71559;BME280;59382;43.852;25.952;2023-04-05T07:18:29;100893.03;;;7.34;69.85
71559;BME280;59382;43.852;25.952;2023-04-05T07:20:56;100886.56;;;7.43;70.03
71559;BME280;59382;43.852;25.952;2023-04-05T07:23:26;100909.38;;;7.68;69.56
71559;BME280;59382;43.852;25.952;2023-04-05T07:25:52;100917.06;;;7.71;69.08
71559;BME280;59382;43.852;25.952;2023-04-05T07:28:18;100922.44;;;7.71;68.73
71559;BME280;59382;43.852;25.952;2023-04-05T07:30:44;100921.44;;;7.72;68.78
71559;BME280;59382;43.852;25.952;2023-04-05T07:33:11;100917.81;;;7.65;68.92
71559;BME280;59382;43.852;25.952;2023-04-05T07:35:39;100923.75;;;7.75;69.14
71559;BME280;59382;43.852;25.952;2023-04-05T07:38:05;100916.31;;;7.77;68.94
71559;BME280;59382;43.852;25.952;2023-04-05T07:40:30;100899.97;;;7.72;68.84
71559;BME280;59382;43.852;25.952;2023-04-05T07:42:56;100922.88;;;7.89;68.65
71559;BME280;59382;43.852;25.952;2023-04-05T07:45:21;100912.69;;;7.84;68.47
71559;BME280;59382;43.852;25.952;2023-04-05T07:47:47;100887.81;;;7.76;68.48
71559;BME280;59382;43.852;25.952;2023-04-05T07:50:12;100917.03;;;8.00;67.92
71559;BME280;59382;43.852;25.952;2023-04-05T07:52:40;100917.03;;;8.00;68.31
71559;BME280;59382;43.852;25.952;2023-04-05T07:55:08;100907.16;;;8.07;68.06
71559;BME280;59382;43.852;25.952;2023-04-05T07:57:33;100922.41;;;8.21;68.09
71559;BME280;59382;43.852;25.952;2023-04-05T08:00:03;100921.31;;;8.30;67.71
71559;BME280;59382;43.852;25.952;2023-04-05T08:02:35;100927.81;;;8.42;67.76
71559;BME280;59382;43.852;25.952;2023-04-05T08:05:01;100912.47;;;8.36;67.25
71559;BME280;59382;43.852;25.952;2023-04-05T08:07:30;100911.56;;;8.29;67.60
71559;BME280;59382;43.852;25.952;2023-04-05T08:09:57;100927.44;;;8.45;67.30
71559;BME280;59382;43.852;25.952;2023-04-05T08:12:27;100933.72;;;8.52;67.49
71559;BME280;59382;43.852;25.952;2023-04-05T08:14:55;100931.53;;;8.62;67.32
71559;BME280;59382;43.852;25.952;2023-04-05T08:17:22;100916.44;;;8.61;67.26
71559;BME280;59382;43.852;25.952;2023-04-05T08:19:52;100938.06;;;8.74;66.84
71559;BME280;59382;43.852;25.952;2023-04-05T08:22:18;100932.69;;;8.74;67.14
71559;BME280;59382;43.852;25.952;2023-04-05T08:24:45;100938.06;;;8.74;66.60
71559;BME280;59382;43.852;25.952;2023-04-05T08:27:11;100939.31;;;8.78;66.68
71559;BME280;59382;43.852;25.952;2023-04-05T08:29:37;100950.09;;;8.78;66.81
71559;BME280;59382;43.852;25.952;2023-04-05T08:32:03;100938.06;;;8.74;66.88
71559;BME280;59382;43.852;25.952;2023-04-05T08:34:28;100947.16;;;8.73;66.93
71559;BME280;59382;43.852;25.952;2023-04-05T08:36:58;100942.78;;;8.72;66.91
71559;BME280;59382;43.852;25.952;2023-04-05T08:39:27;100942.56;;;8.67;67.05
71559;BME280;59382;43.852;25.952;2023-04-05T08:42:03;100937.94;;;8.61;66.70
71559;BME280;59382;43.852;25.952;2023-04-05T08:44:35;100937.88;;;8.55;67.30
71559;BME280;59382;43.852;25.952;2023-04-05T08:47:03;100948.72;;;8.61;67.04
71559;BME280;59382;43.852;25.952;2023-04-05T08:49:30;100962.38;;;8.66;67.07
71559;BME280;59382;43.852;25.952;2023-04-05T08:51:59;100958.81;;;8.59;67.17
71559;BME280;59382;43.852;25.952;2023-04-05T08:54:25;100964.84;;;8.61;66.78
71559;BME280;59382;43.852;25.952;2023-04-05T08:56:51;100971.88;;;8.62;66.91
71559;BME280;59382;43.852;25.952;2023-04-05T08:59:19;100968.16;;;8.63;66.85
71559;BME280;59382;43.852;25.952;2023-04-05T09:01:46;100957.78;;;8.60;66.65
71559;BME280;59382;43.852;25.952;2023-04-05T09:04:21;100952.41;;;8.60;66.51
71559;BME280;59382;43.852;25.952;2023-04-05T09:06:49;100972.38;;;8.72;66.58
71559;BME280;59382;43.852;25.952;2023-04-05T09:09:15;100976.09;;;8.71;66.64
71559;BME280;59382;43.852;25.952;2023-04-05T09:11:43;100972.16;;;8.67;66.48
71559;BME280;59382;43.852;25.952;2023-04-05T09:14:09;100949.47;;;8.55;66.23
71559;BME280;59382;43.852;25.952;2023-04-05T09:16:37;100971.00;;;8.76;66.52
71559;BME280;59382;43.852;25.952;2023-04-05T09:19:03;100962.56;;;8.86;66.35
71559;BME280;59382;43.852;25.952;2023-04-05T09:21:29;100954.94;;;8.89;66.28
71559;BME280;59382;43.852;25.952;2023-04-05T09:23:54;100954.41;;;9.00;65.86
71559;BME280;59382;43.852;25.952;2023-04-05T09:26:22;100971.94;;;9.17;66.10
71559;BME280;59382;43.852;25.952;2023-04-05T09:28:49;100959.34;;;9.24;65.99
71559;BME280;59382;43.852;25.952;2023-04-05T09:31:30;100962.13;;;9.37;64.93
71559;BME280;59382;43.852;25.952;2023-04-05T09:33:57;100960.31;;;9.44;65.12
71559;BME280;59382;43.852;25.952;2023-04-05T09:36:24;100950.81;;;9.48;64.94
71559;BME280;59382;43.852;25.952;2023-04-05T09:38:50;100940.88;;;9.49;64.76
71559;BME280;59382;43.852;25.952;2023-04-05T09:41:16;100947.50;;;9.53;64.74
71559;BME280;59382;43.852;25.952;2023-04-05T09:43:41;100941.28;;;9.52;64.79
71559;BME280;59382;43.852;25.952;2023-04-05T09:46:32;100949.88;;;9.62;64.42
71559;BME280;59382;43.852;25.952;2023-04-05T09:48:59;100952.16;;;9.72;64.81
71559;BME280;59382;43.852;25.952;2023-04-05T09:51:36;100950.56;;;9.77;64.35
71559;BME280;59382;43.852;25.952;2023-04-05T09:56:30;100946.03;;;9.84;63.96
71559;BME280;59382;43.852;25.952;2023-04-05T09:59:10;100932.50;;;9.71;64.21
71559;BME280;59382;43.852;25.952;2023-04-05T10:01:37;100940.00;;;9.82;64.02
71559;BME280;59382;43.852;25.952;2023-04-05T10:04:03;100940.03;;;9.95;64.22
71559;BME280;59382;43.852;25.952;2023-04-05T10:06:39;100929.25;;;9.95;63.99
71559;BME280;59382;43.852;25.952;2023-04-05T10:09:07;100893.78;;;9.85;63.69
71559;BME280;59382;43.852;25.952;2023-04-05T10:11:33;100919.81;;;10.13;63.71
71559;BME280;59382;43.852;25.952;2023-04-05T10:14:01;100934.38;;;10.25;63.65
71559;BME280;59382;43.852;25.952;2023-04-05T10:16:29;100918.59;;;10.22;63.37
71559;BME280;59382;43.852;25.952;2023-04-05T10:18:56;100936.44;;;10.36;62.84
71559;BME280;59382;43.852;25.952;2023-04-05T10:21:29;100938.53;;;10.34;63.15
71559;BME280;59382;43.852;25.952;2023-04-05T10:27:16;100950.31;;;10.20;63.00
71559;BME280;59382;43.852;25.952;2023-04-05T10:30:05;100935.59;;;10.16;62.77
71559;BME280;59382;43.852;25.952;2023-04-05T10:35:38;100937.25;;;10.23;63.27
71559;BME280;59382;43.852;25.952;2023-04-05T10:40:46;100941.81;;;10.23;62.56
71559;BME280;59382;43.852;25.952;2023-04-05T10:43:19;100933.94;;;10.15;63.18
71559;BME280;59382;43.852;25.952;2023-04-05T10:45:47;100941.22;;;10.21;62.96
71559;BME280;59382;43.852;25.952;2023-04-05T10:50:56;100945.31;;;10.17;62.41
71559;BME280;59382;43.852;25.952;2023-04-05T10:53:24;100930.59;;;10.13;62.83
71559;BME280;59382;43.852;25.952;2023-04-05T10:55:50;100948.50;;;10.27;63.00
71559;BME280;59382;43.852;25.952;2023-04-05T10:58:17;100953.03;;;10.33;62.65
71559;BME280;59382;43.852;25.952;2023-04-05T11:00:46;100948.91;;;10.37;62.93
71559;BME280;59382;43.852;25.952;2023-04-05T11:06:33;100958.22;;;10.28;62.37
71559;BME280;59382;43.852;25.952;2023-04-05T11:09:09;100946.81;;;10.19;62.70
71559;BME280;59382;43.852;25.952;2023-04-05T11:11:39;100951.38;;;10.19;62.42
71559;BME280;59382;43.852;25.952;2023-04-05T11:14:25;100932.25;;;10.14;62.51
71559;BME280;59382;43.852;25.952;2023-04-05T11:16:59;100951.38;;;10.32;62.53
71559;BME280;59382;43.852;25.952;2023-04-05T11:22:10;100950.16;;;10.28;62.39
71559;BME280;59382;43.852;25.952;2023-04-05T11:27:15;100941.81;;;10.23;62.08
71559;BME280;59382;43.852;25.952;2023-04-05T11:29:49;100944.72;;;10.15;62.02
71559;BME280;59382;43.852;25.952;2023-04-05T11:32:15;100942.19;;;10.07;62.31
71559;BME280;59382;43.852;25.952;2023-04-05T11:34:42;100943.63;;;10.09;62.40
71559;BME280;59382;43.852;25.952;2023-04-05T11:37:08;100951.72;;;10.09;62.72
71559;BME280;59382;43.852;25.952;2023-04-05T11:39:33;100942.19;;;10.07;62.13
71559;BME280;59382;43.852;25.952;2023-04-05T11:42:06;100944.09;;;10.13;62.53
71559;BME280;59382;43.852;25.952;2023-04-05T11:44:43;100942.22;;;10.20;62.52
71559;BME280;59382;43.852;25.952;2023-04-05T11:47:09;100931.44;;;10.13;62.25
71559;BME280;59382;43.852;25.952;2023-04-05T11:49:35;100949.50;;;10.19;61.84
71559;BME280;59382;43.852;25.952;2023-04-05T11:52:10;100947.38;;;10.08;62.02
71559;BME280;59382;43.852;25.952;2023-04-05T11:54:36;100944.69;;;10.08;62.10
71559;BME280;59382;43.852;25.952;2023-04-05T11:57:02;100950.28;;;10.07;62.53
71559;BME280;59382;43.852;25.952;2023-04-05T11:59:32;100952.97;;;10.07;62.29
71559;BME280;59382;43.852;25.952;2023-04-05T12:02:04;100953.81;;;10.07;62.26
71559;BME280;59382;43.852;25.952;2023-04-05T12:04:37;100931.53;;;9.98;62.08
71559;BME280;59382;43.852;25.952;2023-04-05T12:07:15;100908.06;;;9.79;62.07
71559;BME280;59382;43.852;25.952;2023-04-05T12:10:04;100933.44;;;10.04;62.21
71559;BME280;59382;43.852;25.952;2023-04-05T12:12:42;100940.97;;;10.16;62.30
71559;BME280;59382;43.852;25.952;2023-04-05T12:15:10;100951.38;;;10.25;62.00
71559;BME280;59382;43.852;25.952;2023-04-05T12:17:44;100949.75;;;10.31;62.34
71559;BME280;59382;43.852;25.952;2023-04-05T12:20:12;100941.44;;;10.32;62.04
71559;BME280;59382;43.852;25.952;2023-04-05T12:22:40;100930.63;;;10.26;62.03
71559;BME280;59382;43.852;25.952;2023-04-05T12:25:07;100944.53;;;10.36;61.99
71559;BME280;59382;43.852;25.952;2023-04-05T12:27:33;100950.34;;;10.33;62.20
71559;BME280;59382;43.852;25.952;2023-04-05T12:30:19;100950.53;;;10.31;62.22
71559;BME280;59382;43.852;25.952;2023-04-05T12:32:50;100953.28;;;10.38;62.13
71559;BME280;59382;43.852;25.952;2023-04-05T12:35:18;100953.66;;;10.28;61.79
71559;BME280;59382;43.852;25.952;2023-04-05T12:37:44;100946.81;;;10.26;62.17
71559;BME280;59382;43.852;25.952;2023-04-05T12:40:11;100949.91;;;10.23;62.18
71559;BME280;59382;43.852;25.952;2023-04-05T12:42:39;100961.31;;;10.18;62.28
71559;BME280;59382;43.852;25.952;2023-04-05T12:45:11;100951.31;;;10.12;62.33
71559;BME280;59382;43.852;25.952;2023-04-05T12:47:51;100944.63;;;10.01;62.01
71559;BME280;59382;43.852;25.952;2023-04-05T12:50:19;100948.34;;;10.00;62.04
71559;BME280;59382;43.852;25.952;2023-04-05T12:52:54;100944.63;;;10.01;62.32
71559;BME280;59382;43.852;25.952;2023-04-05T12:55:19;100951.69;;;10.02;62.19
71559;BME280;59382;43.852;25.952;2023-04-05T12:57:53;100935.47;;;9.96;62.43
71559;BME280;59382;43.852;25.952;2023-04-05T13:00:20;100942.19;;;10.07;62.35
71559;BME280;59382;43.852;25.952;2023-04-05T13:02:49;100950.53;;;10.12;62.21
71559;BME280;59382;43.852;25.952;2023-04-05T13:05:29;100943.44;;;10.11;62.35
71559;BME280;59382;43.852;25.952;2023-04-05T13:07:56;100958.19;;;10.15;62.41
71559;BME280;59382;43.852;25.952;2023-04-05T13:10:23;100951.13;;;10.14;62.36
71559;BME280;59382;43.852;25.952;2023-04-05T13:12:49;100947.19;;;10.10;62.01
71559;BME280;59382;43.852;25.952;2023-04-05T13:15:15;100953.00;;;10.20;62.39
71559;BME280;59382;43.852;25.952;2023-04-05T13:17:42;100941.81;;;10.16;61.89
71559;BME280;59382;43.852;25.952;2023-04-05T13:20:10;100952.59;;;10.23;62.26
71559;BME280;59382;43.852;25.952;2023-04-05T13:22:36;100935.19;;;10.19;62.11
71559;BME280;59382;43.852;25.952;2023-04-05T13:25:02;100941.66;;;10.31;62.22
71559;BME280;59382;43.852;25.952;2023-04-05T13:27:28;100940.19;;;10.35;61.91